sensor_id;sensor_type;location;lat;lon;timestamp;pressure;altitude;pressure_sealevel;temperature;humidity
73952;BME280;62304;47.662;18.324;2024-02-23T00:02:46;98767.91;;;10.58;65.43
73952;BME280;62304;47.662;18.324;2024-02-23T00:05:50;98767.50;;;10.60;65.47
73952;BME280;62304;47.662;18.324;2024-02-23T00:08:53;98761.16;;;10.59;65.81
73952;BME280;62304;47.662;18.324;2024-02-23T00:11:57;98765.94;;;10.59;65.87
73952;BME280;62304;47.662;18.324;2024-02-23T00:15:01;98766.28;;;10.64;65.76
73952;BME280;62304;47.662;18.324;2024-02-23T00:18:04;98761.91;;;10.67;65.72
73952;BME280;62304;47.662;18.324;2024-02-23T00:21:08;98763.06;;;10.69;65.82
73952;BME280;62304;47.662;18.324;2024-02-23T00:24:11;98764.63;;;10.70;66.09
73952;BME280;62304;47.662;18.324;2024-02-23T00:27:14;98767.41;;;10.70;66.33
73952;BME280;62304;47.662;18.324;2024-02-23T00:30:18;98758.72;;;10.68;66.62
73952;BME280;62304;47.662;18.324;2024-02-23T00:33:21;98754.38;;;10.67;66.92
73952;BME280;62304;47.662;18.324;2024-02-23T00:36:25;98738.94;;;10.66;67.26
73952;BME280;62304;47.662;18.324;2024-02-23T00:39:27;98754.38;;;10.67;67.21
73952;BME280;62304;47.662;18.324;2024-02-23T00:42:31;98750.00;;;10.70;67.16
73952;BME280;62304;47.662;18.324;2024-02-23T00:45:34;98750.37;;;10.72;67.24
73952;BME280;62304;47.662;18.324;2024-02-23T00:48:37;98736.91;;;10.74;67.14
73952;BME280;62304;47.662;18.324;2024-02-23T00:51:40;98743.63;;;10.73;67.41
73952;BME280;62304;47.662;18.324;2024-02-23T00:54:43;98730.56;;;10.73;68.10
73952;BME280;62304;47.662;18.324;2024-02-23T00:57:46;98742.09;;;10.68;68.98
73952;BME280;62304;47.662;18.324;2024-02-23T01:00:49;98746.88;;;10.64;69.99
73952;BME280;62304;47.662;18.324;2024-02-23T01:03:52;98738.22;;;10.59;70.50
73952;BME280;62304;47.662;18.324;2024-02-23T01:06:57;98737.50;;;10.51;71.05
73952;BME280;62304;47.662;18.324;2024-02-23T01:10:00;98731.91;;;10.55;70.70
73952;BME280;62304;47.662;18.324;2024-02-23T01:13:04;98733.44;;;10.59;70.32
73952;BME280;62304;47.662;18.324;2024-02-23T01:16:07;98737.06;;;10.56;70.50
73952;BME280;62304;47.662;18.324;2024-02-23T01:19:11;98741.75;;;10.59;70.23
73952;BME280;62304;47.662;18.324;2024-02-23T01:22:14;98735.03;;;10.60;70.06
73952;BME280;62304;47.662;18.324;2024-02-23T01:25:17;98727.91;;;10.59;70.23
73952;BME280;62304;47.662;18.324;2024-02-23T01:28:21;98724.75;;;10.57;71.35
73952;BME280;62304;47.662;18.324;2024-02-23T01:31:24;98719.28;;;10.50;72.76
73952;BME280;62304;47.662;18.324;2024-02-23T01:34:27;98726.53;;;10.34;75.57
73952;BME280;62304;47.662;18.324;2024-02-23T01:37:31;98720.72;;;10.18;77.33
73952;BME280;62304;47.662;18.324;2024-02-23T01:40:34;98722.78;;;10.00;79.65
73952;BME280;62304;47.662;18.324;2024-02-23T01:43:37;98724.47;;;9.87;81.16
73952;BME280;62304;47.662;18.324;2024-02-23T01:46:40;98728.06;;;9.77;82.32
73952;BME280;62304;47.662;18.324;2024-02-23T01:49:46;98728.09;;;9.73;82.98
73952;BME280;62304;47.662;18.324;2024-02-23T01:52:50;98716.25;;;9.66;84.11
73952;BME280;62304;47.662;18.324;2024-02-23T01:55:55;98716.31;;;9.55;85.53
73952;BME280;62304;47.662;18.324;2024-02-23T01:58:59;98714.78;;;9.44;86.90
73952;BME280;62304;47.662;18.324;2024-02-23T02:02:06;98711.22;;;9.43;87.24
73952;BME280;62304;47.662;18.324;2024-02-23T02:05:10;98716.38;;;9.41;87.49
73952;BME280;62304;47.662;18.324;2024-02-23T02:08:13;98718.38;;;9.34;88.70
73952;BME280;62304;47.662;18.324;2024-02-23T02:11:16;98719.22;;;9.20;90.57
73952;BME280;62304;47.662;18.324;2024-02-23T02:14:20;98721.63;;;9.11;91.38
73952;BME280;62304;47.662;18.324;2024-02-23T02:17:23;98713.34;;;9.04;93.06
73952;BME280;62304;47.662;18.324;2024-02-23T02:20:27;98690.47;;;8.90;93.40
73952;BME280;62304;47.662;18.324;2024-02-23T02:23:31;98717.31;;;8.96;93.34
73952;BME280;62304;47.662;18.324;2024-02-23T02:26:36;98708.62;;;8.91;94.65
73952;BME280;62304;47.662;18.324;2024-02-23T02:29:40;98721.66;;;8.83;95.36
73952;BME280;62304;47.662;18.324;2024-02-23T02:32:43;98700.38;;;8.63;97.32
73952;BME280;62304;47.662;18.324;2024-02-23T02:35:46;98718.56;;;8.67;97.96
73952;BME280;62304;47.662;18.324;2024-02-23T02:38:49;98720.56;;;8.56;99.12
73952;BME280;62304;47.662;18.324;2024-02-23T02:41:53;98714.63;;;8.51;100.00
73952;BME280;62304;47.662;18.324;2024-02-23T02:44:56;98717.38;;;8.44;100.00
73952;BME280;62304;47.662;18.324;2024-02-23T02:48:00;98719.34;;;8.43;100.00
73952;BME280;62304;47.662;18.324;2024-02-23T02:51:04;98719.75;;;8.42;100.00
73952;BME280;62304;47.662;18.324;2024-02-23T02:54:08;98713.84;;;8.36;100.00
73952;BME280;62304;47.662;18.324;2024-02-23T02:57:11;98711.06;;;8.36;100.00
73952;BME280;62304;47.662;18.324;2024-02-23T03:00:14;98705.16;;;8.34;100.00
73952;BME280;62304;47.662;18.324;2024-02-23T03:03:17;98705.94;;;8.35;100.00
73952;BME280;62304;47.662;18.324;2024-02-23T03:06:20;98713.84;;;8.36;100.00
73952;BME280;62304;47.662;18.324;2024-02-23T03:09:23;98708.69;;;8.35;100.00
73952;BME280;62304;47.662;18.324;2024-02-23T03:12:26;98708.31;;;8.36;100.00
73952;BME280;62304;47.662;18.324;2024-02-23T03:15:29;98713.84;;;8.40;100.00
73952;BME280;62304;47.662;18.324;2024-02-23T03:18:32;98707.09;;;8.44;100.00
73952;BME280;62304;47.662;18.324;2024-02-23T03:21:35;98709.91;;;8.48;100.00
73952;BME280;62304;47.662;18.324;2024-02-23T03:24:42;98715.41;;;8.51;100.00
73952;BME280;62304;47.662;18.324;2024-02-23T03:27:45;98708.31;;;8.54;100.00
73952;BME280;62304;47.662;18.324;2024-02-23T03:30:48;98713.03;;;8.53;100.00
73952;BME280;62304;47.662;18.324;2024-02-23T03:33:51;98712.63;;;8.58;100.00
73952;BME280;62304;47.662;18.324;2024-02-23T03:36:54;98702.75;;;8.68;99.45
73952;BME280;62304;47.662;18.324;2024-02-23T03:39:57;98703.91;;;8.77;98.13
73952;BME280;62304;47.662;18.324;2024-02-23T03:43:03;98705.87;;;8.87;97.15
73952;BME280;62304;47.662;18.324;2024-02-23T03:46:06;98703.50;;;8.96;96.10
73952;BME280;62304;47.662;18.324;2024-02-23T03:49:09;98705.44;;;9.06;95.54
73952;BME280;62304;47.662;18.324;2024-02-23T03:52:12;98701.09;;;9.09;95.51
73952;BME280;62304;47.662;18.324;2024-02-23T03:55:15;98704.22;;;9.14;94.77
73952;BME280;62304;47.662;18.324;2024-02-23T03:58:18;98701.84;;;9.20;94.17
73952;BME280;62304;47.662;18.324;2024-02-23T04:01:22;98705.34;;;9.27;93.32
73952;BME280;62304;47.662;18.324;2024-02-23T04:04:25;98707.31;;;9.34;92.00
73952;BME280;62304;47.662;18.324;2024-02-23T04:07:28;98716.00;;;9.39;91.10
73952;BME280;62304;47.662;18.324;2024-02-23T04:10:31;98716.78;;;9.36;91.98
73952;BME280;62304;47.662;18.324;2024-02-23T04:13:35;98725.47;;;9.38;91.21
73952;BME280;62304;47.662;18.324;2024-02-23T04:16:38;98717.53;;;9.47;89.84
73952;BME280;62304;47.662;18.324;2024-02-23T04:19:42;98727.84;;;9.47;90.30
73952;BME280;62304;47.662;18.324;2024-02-23T04:22:45;98738.84;;;9.57;88.75
73952;BME280;62304;47.662;18.324;2024-02-23T04:25:48;98724.62;;;9.55;88.95
73952;BME280;62304;47.662;18.324;2024-02-23T04:28:53;98731.75;;;9.56;88.52
73952;BME280;62304;47.662;18.324;2024-02-23T04:31:56;98725.00;;;9.57;88.52
73952;BME280;62304;47.662;18.324;2024-02-23T04:35:00;98724.19;;;9.64;87.77
73952;BME280;62304;47.662;18.324;2024-02-23T04:38:03;98738.00;;;9.67;87.36
73952;BME280;62304;47.662;18.324;2024-02-23T04:41:06;98730.84;;;9.73;85.96
73952;BME280;62304;47.662;18.324;2024-02-23T04:44:10;98740.31;;;9.79;85.75
73952;BME280;62304;47.662;18.324;2024-02-23T04:47:13;98741.88;;;9.84;85.19
73952;BME280;62304;47.662;18.324;2024-02-23T04:50:16;98744.25;;;9.85;84.96
73952;BME280;62304;47.662;18.324;2024-02-23T04:53:19;98741.84;;;9.87;84.61
73952;BME280;62304;47.662;18.324;2024-02-23T04:56:22;98751.31;;;9.93;84.07
73952;BME280;62304;47.662;18.324;2024-02-23T04:59:26;98756.84;;;9.93;84.08
73952;BME280;62304;47.662;18.324;2024-02-23T05:02:28;98762.41;;;9.90;84.61
73952;BME280;62304;47.662;18.324;2024-02-23T05:05:38;98753.31;;;9.89;85.06
73952;BME280;62304;47.662;18.324;2024-02-23T05:08:42;98764.00;;;9.87;86.04
73952;BME280;62304;47.662;18.324;2024-02-23T05:11:45;98767.22;;;9.75;88.04
73952;BME280;62304;47.662;18.324;2024-02-23T05:14:50;98782.72;;;9.62;89.63
73952;BME280;62304;47.662;18.324;2024-02-23T05:17:53;98775.66;;;9.47;91.41
73952;BME280;62304;47.662;18.324;2024-02-23T05:20:56;98797.41;;;9.38;92.23
73952;BME280;62304;47.662;18.324;2024-02-23T05:23:59;98801.41;;;9.30;93.66
73952;BME280;62304;47.662;18.324;2024-02-23T05:27:02;98808.12;;;9.19;95.28
73952;BME280;62304;47.662;18.324;2024-02-23T05:30:05;98810.94;;;9.05;97.35
73952;BME280;62304;47.662;18.324;2024-02-23T05:33:09;98807.78;;;8.92;99.00
73952;BME280;62304;47.662;18.324;2024-02-23T05:36:12;98826.72;;;8.83;100.00
73952;BME280;62304;47.662;18.324;2024-02-23T05:39:15;98836.22;;;8.75;100.00
73952;BME280;62304;47.662;18.324;2024-02-23T05:42:18;98842.13;;;8.67;100.00
73952;BME280;62304;47.662;18.324;2024-02-23T05:45:21;98848.44;;;8.60;100.00
73952;BME280;62304;47.662;18.324;2024-02-23T05:48:25;98853.16;;;8.53;100.00
73952;BME280;62304;47.662;18.324;2024-02-23T05:51:29;98847.25;;;8.51;100.00
73952;BME280;62304;47.662;18.324;2024-02-23T05:54:32;98844.81;;;8.28;100.00
73952;BME280;62304;47.662;18.324;2024-02-23T05:57:35;98870.50;;;8.39;100.00
73952;BME280;62304;47.662;18.324;2024-02-23T06:00:38;98870.09;;;8.34;100.00
73952;BME280;62304;47.662;18.324;2024-02-23T06:03:41;98876.81;;;8.29;100.00
73952;BME280;62304;47.662;18.324;2024-02-23T06:06:44;98876.38;;;8.24;100.00
73952;BME280;62304;47.662;18.324;2024-02-23T06:09:48;98873.63;;;8.24;100.00
73952;BME280;62304;47.662;18.324;2024-02-23T06:12:51;98889.81;;;8.25;100.00
73952;BME280;62304;47.662;18.324;2024-02-23T06:15:58;98893.75;;;8.21;100.00
73952;BME280;62304;47.662;18.324;2024-02-23T06:19:02;98901.19;;;8.17;100.00
73952;BME280;62304;47.662;18.324;2024-02-23T06:22:06;98912.63;;;8.15;100.00
73952;BME280;62304;47.662;18.324;2024-02-23T06:25:11;98917.38;;;8.15;100.00
73952;BME280;62304;47.662;18.324;2024-02-23T06:28:15;98917.31;;;8.11;100.00
73952;BME280;62304;47.662;18.324;2024-02-23T06:31:17;98917.31;;;8.11;100.00
73952;BME280;62304;47.662;18.324;2024-02-23T06:34:21;98916.13;;;8.09;100.00
73952;BME280;62304;47.662;18.324;2024-02-23T06:37:24;98923.66;;;8.08;100.00
73952;BME280;62304;47.662;18.324;2024-02-23T06:40:27;98915.72;;;8.03;100.00
73952;BME280;62304;47.662;18.324;2024-02-23T06:43:47;98916.47;;;7.97;100.00
73952;BME280;62304;47.662;18.324;2024-02-23T06:46:50;98928.72;;;7.99;100.00
73952;BME280;62304;47.662;18.324;2024-02-23T06:49:53;98944.09;;;7.97;100.00
73952;BME280;62304;47.662;18.324;2024-02-23T06:52:56;98945.66;;;7.94;100.00
73952;BME280;62304;47.662;18.324;2024-02-23T06:55:59;98945.66;;;7.94;100.00
73952;BME280;62304;47.662;18.324;2024-02-23T06:59:03;98931.81;;;7.87;100.00
73952;BME280;62304;47.662;18.324;2024-02-23T07:02:06;98944.06;;;7.93;100.00
73952;BME280;62304;47.662;18.324;2024-02-23T07:05:10;98946.00;;;7.89;100.00
73952;BME280;62304;47.662;18.324;2024-02-23T07:08:13;98956.66;;;7.91;100.00
73952;BME280;62304;47.662;18.324;2024-02-23T07:11:16;98946.44;;;7.91;100.00
73952;BME280;62304;47.662;18.324;2024-02-23T07:14:19;98954.34;;;7.93;100.00
73952;BME280;62304;47.662;18.324;2024-02-23T07:17:25;98965.34;;;7.89;100.00
73952;BME280;62304;47.662;18.324;2024-02-23T07:20:28;98965.75;;;7.91;100.00
73952;BME280;62304;47.662;18.324;2024-02-23T07:23:31;98968.53;;;7.91;100.00
73952;BME280;62304;47.662;18.324;2024-02-23T07:26:34;98972.47;;;7.94;100.00
73952;BME280;62304;47.662;18.324;2024-02-23T07:29:38;98983.12;;;7.95;100.00
73952;BME280;62304;47.662;18.324;2024-02-23T07:32:41;98981.97;;;7.96;100.00
73952;BME280;62304;47.662;18.324;2024-02-23T07:35:44;98991.03;;;8.00;100.00
73952;BME280;62304;47.662;18.324;2024-02-23T07:38:47;99000.13;;;8.04;100.00
73952;BME280;62304;47.662;18.324;2024-02-23T07:41:50;99006.84;;;8.07;100.00
73952;BME280;62304;47.662;18.324;2024-02-23T07:44:53;99011.22;;;8.11;100.00
73952;BME280;62304;47.662;18.324;2024-02-23T07:47:57;99015.19;;;8.14;100.00
73952;BME280;62304;47.662;18.324;2024-02-23T07:51:01;99017.56;;;8.19;100.00
73952;BME280;62304;47.662;18.324;2024-02-23T07:54:05;99017.22;;;8.20;100.00
73952;BME280;62304;47.662;18.324;2024-02-23T07:57:08;98988.31;;;8.04;100.00
73952;BME280;62304;47.662;18.324;2024-02-23T08:00:11;99027.91;;;8.25;100.00
73952;BME280;62304;47.662;18.324;2024-02-23T08:03:15;99034.63;;;8.28;100.00
73952;BME280;62304;47.662;18.324;2024-02-23T08:06:18;99028.31;;;8.27;100.00
73952;BME280;62304;47.662;18.324;2024-02-23T08:09:21;99033.06;;;8.30;100.00
73952;BME280;62304;47.662;18.324;2024-02-23T08:12:26;99036.59;;;8.31;100.00
73952;BME280;62304;47.662;18.324;2024-02-23T08:15:29;99044.94;;;8.34;100.00
73952;BME280;62304;47.662;18.324;2024-02-23T08:18:32;99054.41;;;8.37;100.00
73952;BME280;62304;47.662;18.324;2024-02-23T08:21:35;99046.53;;;8.39;100.00
73952;BME280;62304;47.662;18.324;2024-02-23T08:24:39;99048.50;;;8.42;100.00
73952;BME280;62304;47.662;18.324;2024-02-23T08:27:42;99045.38;;;8.47;100.00
73952;BME280;62304;47.662;18.324;2024-02-23T08:30:45;99059.19;;;8.50;100.00
73952;BME280;62304;47.662;18.324;2024-02-23T08:33:48;99058.44;;;8.53;100.00
73952;BME280;62304;47.662;18.324;2024-02-23T08:36:52;99067.12;;;8.55;100.00
73952;BME280;62304;47.662;18.324;2024-02-23T08:39:55;99069.94;;;8.59;100.00
73952;BME280;62304;47.662;18.324;2024-02-23T08:42:59;99067.19;;;8.62;100.00
73952;BME280;62304;47.662;18.324;2024-02-23T08:46:02;99069.97;;;8.69;100.00
73952;BME280;62304;47.662;18.324;2024-02-23T08:49:11;99080.28;;;8.79;100.00
73952;BME280;62304;47.662;18.324;2024-02-23T08:52:14;99091.00;;;8.95;100.00
73952;BME280;62304;47.662;18.324;2024-02-23T08:55:17;99098.16;;;9.06;100.00
73952;BME280;62304;47.662;18.324;2024-02-23T08:58:21;99094.97;;;9.08;100.00
73952;BME280;62304;47.662;18.324;2024-02-23T09:01:24;99110.41;;;9.09;100.00
73952;BME280;62304;47.662;18.324;2024-02-23T09:04:27;99108.03;;;9.04;100.00
73952;BME280;62304;47.662;18.324;2024-02-23T09:07:30;99107.22;;;9.00;100.00
73952;BME280;62304;47.662;18.324;2024-02-23T09:10:35;99113.50;;;8.93;100.00
73952;BME280;62304;47.662;18.324;2024-02-23T09:13:38;99107.16;;;8.86;100.00
73952;BME280;62304;47.662;18.324;2024-02-23T09:16:41;99115.84;;;8.81;100.00
73952;BME280;62304;47.662;18.324;2024-02-23T09:19:44;99109.50;;;8.84;100.00
73952;BME280;62304;47.662;18.324;2024-02-23T09:22:48;99104.41;;;8.89;100.00
73952;BME280;62304;47.662;18.324;2024-02-23T09:25:51;99106.78;;;8.91;100.00
73952;BME280;62304;47.662;18.324;2024-02-23T09:28:55;99100.84;;;8.92;100.00
73952;BME280;62304;47.662;18.324;2024-02-23T09:31:58;99100.88;;;8.96;100.00
73952;BME280;62304;47.662;18.324;2024-02-23T09:35:01;99087.41;;;8.91;100.00
73952;BME280;62304;47.662;18.324;2024-02-23T09:38:06;99100.13;;;9.06;100.00
73952;BME280;62304;47.662;18.324;2024-02-23T09:41:15;99095.41;;;9.13;100.00
73952;BME280;62304;47.662;18.324;2024-02-23T09:44:20;99091.44;;;9.11;100.00
73952;BME280;62304;47.662;18.324;2024-02-23T09:47:27;99095.03;;;9.11;100.00
73952;BME280;62304;47.662;18.324;2024-02-23T09:50:32;99097.00;;;9.18;100.00
73952;BME280;62304;47.662;18.324;2024-02-23T09:53:37;99101.78;;;9.28;100.00
73952;BME280;62304;47.662;18.324;2024-02-23T09:56:41;99104.53;;;9.38;100.00
73952;BME280;62304;47.662;18.324;2024-02-23T09:59:46;99106.97;;;9.50;100.00
73952;BME280;62304;47.662;18.324;2024-02-23T10:02:53;99114.47;;;9.60;100.00
73952;BME280;62304;47.662;18.324;2024-02-23T10:05:57;99105.78;;;9.65;100.00
73952;BME280;62304;47.662;18.324;2024-02-23T10:09:00;99111.34;;;9.72;100.00
73952;BME280;62304;47.662;18.324;2024-02-23T10:12:07;99098.28;;;9.73;100.00
73952;BME280;62304;47.662;18.324;2024-02-23T10:15:11;99088.38;;;9.82;100.00
73952;BME280;62304;47.662;18.324;2024-02-23T10:18:15;99116.87;;;9.93;100.00
73952;BME280;62304;47.662;18.324;2024-02-23T10:21:18;99103.81;;;9.97;100.00
73952;BME280;62304;47.662;18.324;2024-02-23T10:24:23;99103.81;;;10.01;100.00
73952;BME280;62304;47.662;18.324;2024-02-23T10:27:28;99101.84;;;10.01;100.00
73952;BME280;62304;47.662;18.324;2024-02-23T10:30:32;99116.09;;;10.00;100.00
73952;BME280;62304;47.662;18.324;2024-02-23T10:33:36;99120.06;;;10.02;100.00
73952;BME280;62304;47.662;18.324;2024-02-23T10:36:53;99107.41;;;10.08;100.00
73952;BME280;62304;47.662;18.324;2024-02-23T10:40:00;99103.47;;;10.16;100.00
73952;BME280;62304;47.662;18.324;2024-02-23T10:43:06;99097.91;;;10.23;100.00
73952;BME280;62304;47.662;18.324;2024-02-23T10:46:14;99082.47;;;10.26;100.00
73952;BME280;62304;47.662;18.324;2024-02-23T10:49:18;99079.25;;;10.41;100.00
73952;BME280;62304;47.662;18.324;2024-02-23T10:52:26;99086.81;;;10.41;100.00
73952;BME280;62304;47.662;18.324;2024-02-23T10:55:31;99074.53;;;10.42;100.00
73952;BME280;62304;47.662;18.324;2024-02-23T10:58:35;99091.50;;;10.61;100.00
73952;BME280;62304;47.662;18.324;2024-02-23T11:01:39;99093.47;;;10.61;100.00
73952;BME280;62304;47.662;18.324;2024-02-23T11:04:44;99098.22;;;10.64;100.00
73952;BME280;62304;47.662;18.324;2024-02-23T11:07:49;99090.31;;;10.62;100.00
73952;BME280;62304;47.662;18.324;2024-02-23T11:10:53;99095.03;;;10.69;100.00
73952;BME280;62304;47.662;18.324;2024-02-23T11:13:57;99102.59;;;10.61;99.96
73952;BME280;62304;47.662;18.324;2024-02-23T11:17:00;99090.69;;;10.71;98.51
73952;BME280;62304;47.662;18.324;2024-02-23T11:20:04;99083.88;;;10.86;99.77
73952;BME280;62304;47.662;18.324;2024-02-23T11:23:14;99086.53;;;11.11;100.00
73952;BME280;62304;47.662;18.324;2024-02-23T11:26:18;99085.38;;;11.05;98.23
73952;BME280;62304;47.662;18.324;2024-02-23T11:29:21;99083.03;;;10.96;96.71
73952;BME280;62304;47.662;18.324;2024-02-23T11:32:41;99081.09;;;10.86;94.50
73952;BME280;62304;47.662;18.324;2024-02-23T11:35:46;99087.44;;;10.90;94.40
73952;BME280;62304;47.662;18.324;2024-02-23T11:38:57;99068.38;;;10.99;93.83
73952;BME280;62304;47.662;18.324;2024-02-23T11:42:01;99067.53;;;11.06;92.77
73952;BME280;62304;47.662;18.324;2024-02-23T11:45:05;99062.81;;;10.99;92.48
73952;BME280;62304;47.662;18.324;2024-02-23T11:48:09;99044.50;;;11.12;93.34
73952;BME280;62304;47.662;18.324;2024-02-23T11:51:14;99046.78;;;11.31;92.95
73952;BME280;62304;47.662;18.324;2024-02-23T11:54:17;99039.53;;;11.48;92.53
73952;BME280;62304;47.662;18.324;2024-02-23T11:57:21;99047.53;;;11.35;92.08
73952;BME280;62304;47.662;18.324;2024-02-23T12:00:24;99047.87;;;11.44;91.56
73952;BME280;62304;47.662;18.324;2024-02-23T12:03:28;99047.16;;;11.33;86.48
73952;BME280;62304;47.662;18.324;2024-02-23T12:06:33;99046.72;;;11.42;88.51
73952;BME280;62304;47.662;18.324;2024-02-23T12:09:36;99034.84;;;11.38;86.77
73952;BME280;62304;47.662;18.324;2024-02-23T12:12:40;99053.06;;;11.39;87.04
73952;BME280;62304;47.662;18.324;2024-02-23T12:15:43;99052.25;;;11.45;87.61
73952;BME280;62304;47.662;18.324;2024-02-23T12:18:52;99052.28;;;11.38;87.01
73952;BME280;62304;47.662;18.324;2024-02-23T12:22:01;99051.94;;;11.29;87.02
73952;BME280;62304;47.662;18.324;2024-02-23T12:25:05;99048.03;;;11.20;89.15
73952;BME280;62304;47.662;18.324;2024-02-23T12:28:09;99040.50;;;11.17;88.04
73952;BME280;62304;47.662;18.324;2024-02-23T12:31:12;99040.53;;;11.13;86.00
73952;BME280;62304;47.662;18.324;2024-02-23T12:34:15;99042.13;;;11.14;86.79
73952;BME280;62304;47.662;18.324;2024-02-23T12:37:18;99036.19;;;11.12;86.54
73952;BME280;62304;47.662;18.324;2024-02-23T12:40:22;99045.28;;;11.20;87.88
73952;BME280;62304;47.662;18.324;2024-02-23T12:43:25;99031.00;;;11.21;87.20
73952;BME280;62304;47.662;18.324;2024-02-23T12:46:28;99047.22;;;11.26;87.00
73952;BME280;62304;47.662;18.324;2024-02-23T12:49:31;99041.66;;;11.23;86.84
73952;BME280;62304;47.662;18.324;2024-02-23T12:52:35;99039.69;;;11.23;87.49
73952;BME280;62304;47.662;18.324;2024-02-23T12:55:38;99031.03;;;11.18;86.85
73952;BME280;62304;47.662;18.324;2024-02-23T12:58:43;99032.19;;;11.20;86.96
73952;BME280;62304;47.662;18.324;2024-02-23T13:01:46;99022.69;;;11.18;87.11
73952;BME280;62304;47.662;18.324;2024-02-23T13:04:54;99028.66;;;11.13;85.90
73952;BME280;62304;47.662;18.324;2024-02-23T13:08:00;99037.78;;;11.10;87.04
73952;BME280;62304;47.662;18.324;2024-02-23T13:11:04;99045.75;;;11.04;87.13
73952;BME280;62304;47.662;18.324;2024-02-23T13:14:07;99047.78;;;10.97;88.95
73952;BME280;62304;47.662;18.324;2024-02-23T13:17:12;99056.91;;;10.94;88.14
73952;BME280;62304;47.662;18.324;2024-02-23T13:20:16;99059.31;;;10.88;88.38
73952;BME280;62304;47.662;18.324;2024-02-23T13:23:19;99047.41;;;10.88;86.74
73952;BME280;62304;47.662;18.324;2024-02-23T13:26:23;99046.63;;;10.84;86.48
73952;BME280;62304;47.662;18.324;2024-02-23T13:29:27;99037.94;;;10.82;85.69
73952;BME280;62304;47.662;18.324;2024-02-23T13:32:29;99039.53;;;10.79;85.18
73952;BME280;62304;47.662;18.324;2024-02-23T13:35:33;99029.62;;;10.78;85.11
73952;BME280;62304;47.662;18.324;2024-02-23T13:38:37;99026.47;;;10.76;85.13
73952;BME280;62304;47.662;18.324;2024-02-23T13:41:42;99024.87;;;10.75;84.63
73952;BME280;62304;47.662;18.324;2024-02-23T13:44:45;99017.37;;;10.72;84.33
73952;BME280;62304;47.662;18.324;2024-02-23T13:48:01;99007.06;;;10.73;84.42
73952;BME280;62304;47.662;18.324;2024-02-23T13:51:04;99011.44;;;10.70;84.79
73952;BME280;62304;47.662;18.324;2024-02-23T13:54:08;99022.16;;;10.68;85.32
73952;BME280;62304;47.662;18.324;2024-02-23T13:57:11;99009.47;;;10.67;85.86
73952;BME280;62304;47.662;18.324;2024-02-23T14:00:15;99001.16;;;10.67;85.71
73952;BME280;62304;47.662;18.324;2024-02-23T14:03:19;98999.16;;;10.68;85.51
73952;BME280;62304;47.662;18.324;2024-02-23T14:06:22;98992.03;;;10.67;84.76
73952;BME280;62304;47.662;18.324;2024-02-23T14:09:27;98994.81;;;10.67;85.39
73952;BME280;62304;47.662;18.324;2024-02-23T14:12:30;98984.94;;;10.62;85.30
73952;BME280;62304;47.662;18.324;2024-02-23T14:15:33;98992.09;;;10.60;84.52
73952;BME280;62304;47.662;18.324;2024-02-23T14:18:36;98998.81;;;10.62;84.95
73952;BME280;62304;47.662;18.324;2024-02-23T14:21:41;98994.84;;;10.63;85.35
73952;BME280;62304;47.662;18.324;2024-02-23T14:24:44;98995.25;;;10.65;84.61
73952;BME280;62304;47.662;18.324;2024-02-23T14:27:48;98988.09;;;10.64;84.55
73952;BME280;62304;47.662;18.324;2024-02-23T14:30:51;98988.91;;;10.65;84.46
73952;BME280;62304;47.662;18.324;2024-02-23T14:33:55;98987.69;;;10.66;84.35
73952;BME280;62304;47.662;18.324;2024-02-23T14:36:59;98980.56;;;10.68;84.28
73952;BME280;62304;47.662;18.324;2024-02-23T14:40:03;98986.91;;;10.69;84.19
73952;BME280;62304;47.662;18.324;2024-02-23T14:43:06;98981.34;;;10.69;84.40
73952;BME280;62304;47.662;18.324;2024-02-23T14:46:09;98977.00;;;10.71;84.31
73952;BME280;62304;47.662;18.324;2024-02-23T14:49:12;98962.28;;;10.74;85.30
73952;BME280;62304;47.662;18.324;2024-02-23T14:52:16;98965.06;;;10.74;85.46
73952;BME280;62304;47.662;18.324;2024-02-23T14:55:19;98960.25;;;10.85;84.41
73952;BME280;62304;47.662;18.324;2024-02-23T14:58:23;98951.97;;;10.82;85.38
73952;BME280;62304;47.662;18.324;2024-02-23T15:01:26;98946.03;;;10.80;85.56
73952;BME280;62304;47.662;18.324;2024-02-23T15:04:30;98953.50;;;10.86;85.16
73952;BME280;62304;47.662;18.324;2024-02-23T15:07:33;98944.00;;;10.87;85.26
73952;BME280;62304;47.662;18.324;2024-02-23T15:10:36;98937.72;;;10.80;84.74
73952;BME280;62304;47.662;18.324;2024-02-23T15:13:39;98956.25;;;10.93;85.07
73952;BME280;62304;47.662;18.324;2024-02-23T15:16:43;98937.25;;;10.88;85.68
73952;BME280;62304;47.662;18.324;2024-02-23T15:19:46;98936.06;;;10.89;85.05
73952;BME280;62304;47.662;18.324;2024-02-23T15:22:50;98932.44;;;10.99;84.24
73952;BME280;62304;47.662;18.324;2024-02-23T15:25:53;98935.63;;;10.94;84.79
73952;BME280;62304;47.662;18.324;2024-02-23T15:29:09;98922.94;;;10.97;84.69
73952;BME280;62304;47.662;18.324;2024-02-23T15:32:16;98899.56;;;10.94;84.95
73952;BME280;62304;47.662;18.324;2024-02-23T15:35:20;98906.28;;;10.97;84.71
73952;BME280;62304;47.662;18.324;2024-02-23T15:38:23;98904.28;;;10.97;84.53
73952;BME280;62304;47.662;18.324;2024-02-23T15:41:26;98911.81;;;11.00;84.26
73952;BME280;62304;47.662;18.324;2024-02-23T15:44:29;98920.16;;;10.97;84.96
73952;BME280;62304;47.662;18.324;2024-02-23T15:47:33;98933.22;;;11.00;84.42
73952;BME280;62304;47.662;18.324;2024-02-23T15:50:36;98921.72;;;11.01;84.11
73952;BME280;62304;47.662;18.324;2024-02-23T15:54:00;98925.72;;;10.97;84.72
73952;BME280;62304;47.662;18.324;2024-02-23T15:57:03;98926.09;;;10.99;84.30
73952;BME280;62304;47.662;18.324;2024-02-23T16:00:08;98934.37;;;11.02;84.19
73952;BME280;62304;47.662;18.324;2024-02-23T16:03:13;98928.84;;;11.02;84.40